Time;durP1;ratioP1;P1;durP2;ratioP2;P2;SDS_P1;SDS_P2;PMS_P1;PMS_P2;Temp;Humidity;BMP_temperature;BMP_pressure;BME280_temperature;BME280_humidity;BME280_pressure;Samples;Min_cycle;Max_cycle;Signal;HPM_P1;HPM_P2
2021/03/25 00:00:08;;;;;;;17.55;11.18;;;6.90;99.90;;;;;;5029310;28;20144;-68
2021/03/25 00:03:20;;;;;;;22.05;11.65;;;6.90;99.90;;;;;;5030030;28;20044;-68
2021/03/25 00:06:27;;;;;;;17.45;10.68;;;6.90;99.90;;;;;;5029016;28;20048;-68
2021/03/25 00:09:38;;;;;;;19.40;11.25;;;6.90;99.90;;;;;;5023809;28;20049;-69
2021/03/25 00:12:42;;;;;;;22.07;11.90;;;6.90;99.90;;;;;;5030920;28;20373;-69
2021/03/25 00:15:47;;;;;;;20.33;11.65;;;6.90;99.90;;;;;;5016183;28;20052;-68
2021/03/25 00:18:51;;;;;;;22.23;12.43;;;6.90;99.90;;;;;;5030747;28;20048;-69
2021/03/25 00:21:56;;;;;;;20.08;12.05;;;7.00;99.90;;;;;;5029603;28;20389;-69
2021/03/25 00:25:00;;;;;;;17.98;12.57;;;7.00;99.90;;;;;;5030051;28;20384;-68
2021/03/25 00:28:05;;;;;;;19.73;12.02;;;7.00;99.90;;;;;;5030199;28;20048;-69
2021/03/25 00:31:10;;;;;;;21.65;11.77;;;7.00;99.90;;;;;;5020955;28;20496;-68
2021/03/25 00:34:14;;;;;;;18.98;11.68;;;7.00;99.90;;;;;;5030603;28;20033;-68
2021/03/25 00:37:19;;;;;;;19.77;12.40;;;7.00;99.90;;;;;;5028926;28;20041;-67
2021/03/25 00:40:23;;;;;;;22.65;13.57;;;6.90;99.90;;;;;;5030289;28;20112;-69
2021/03/25 00:43:27;;;;;;;22.58;12.88;;;6.90;99.90;;;;;;5030655;28;20037;-68
2021/03/25 00:46:32;;;;;;;28.38;14.02;;;6.90;99.90;;;;;;5029155;28;20472;-68
2021/03/25 00:49:36;;;;;;;20.27;13.40;;;6.90;99.90;;;;;;5018182;28;20484;-68
2021/03/25 00:52:41;;;;;;;25.75;13.80;;;7.00;99.90;;;;;;5028359;28;20045;-68
2021/03/25 00:55:45;;;;;;;22.55;13.10;;;7.00;99.90;;;;;;5028575;28;20134;-68
2021/03/25 00:58:49;;;;;;;23.25;13.85;;;7.00;99.90;;;;;;5030553;28;20060;-69
2021/03/25 01:01:56;;;;;;;25.35;14.40;;;7.00;99.90;;;;;;5030134;28;20049;-67
2021/03/25 01:05:00;;;;;;;22.52;13.80;;;7.00;99.90;;;;;;5029118;28;20052;-68
2021/03/25 01:08:08;;;;;;;29.45;14.80;;;7.00;99.90;;;;;;5028003;28;20052;-68
2021/03/25 01:11:22;;;;;;;26.92;13.73;;;7.00;99.90;;;;;;5030147;28;20036;-68
2021/03/25 01:14:27;;;;;;;20.55;13.20;;;7.00;99.90;;;;;;5029939;28;20052;-68
2021/03/25 01:17:31;;;;;;;22.10;13.38;;;7.00;99.90;;;;;;5029120;28;20045;-68
2021/03/25 01:20:42;;;;;;;19.30;12.80;;;7.10;99.90;;;;;;5025373;28;20036;-69
2021/03/25 01:23:54;;;;;;;28.17;14.05;;;7.00;99.90;;;;;;5029855;28;20479;-68
2021/03/25 01:27:00;;;;;;;22.55;14.18;;;7.00;99.90;;;;;;5015993;28;20052;-69
2021/03/25 01:30:06;;;;;;;23.13;13.82;;;7.00;99.90;;;;;;5029157;28;20048;-69
2021/03/25 01:33:14;;;;;;;30.48;14.05;;;6.90;99.90;;;;;;5029762;28;20045;-69
2021/03/25 01:36:18;;;;;;;26.35;13.40;;;6.90;99.90;;;;;;5027041;28;20040;-68
2021/03/25 01:39:23;;;;;;;36.20;14.32;;;6.80;99.90;;;;;;5016630;28;20052;-68
2021/03/25 01:42:30;;;;;;;27.08;13.90;;;6.70;99.90;;;;;;5033060;28;20052;-68
2021/03/25 01:45:42;;;;;;;28.75;14.07;;;6.70;99.90;;;;;;5031336;28;20068;-68
2021/03/25 01:48:53;;;;;;;26.73;14.07;;;6.70;99.90;;;;;;5021829;28;20048;-68
2021/03/25 01:52:13;;;;;;;22.48;14.68;;;6.60;99.90;;;;;;5032407;28;20056;-68
2021/03/25 01:55:51;;;;;;;27.70;15.45;;;6.60;99.90;;;;;;5025174;28;20372;-69
2021/03/25 01:59:23;;;;;;;34.25;16.63;;;6.60;99.90;;;;;;5030078;28;20780;-68
2021/03/25 02:02:49;;;;;;;25.85;15.88;;;6.70;99.90;;;;;;5032201;28;20048;-68
2021/03/25 02:06:18;;;;;;;24.13;14.88;;;6.70;99.90;;;;;;5030896;28;20052;-69
2021/03/25 02:09:34;;;;;;;27.17;15.23;;;6.60;99.90;;;;;;5032627;28;20056;-68
2021/03/25 02:13:23;;;;;;;24.52;15.23;;;6.70;99.90;;;;;;5032709;28;20523;-69
2021/03/25 02:16:46;;;;;;;35.55;17.38;;;6.80;99.90;;;;;;5030678;28;20056;-68
2021/03/25 02:20:51;;;;;;;22.15;15.13;;;7.00;99.90;;;;;;5033069;28;20602;-68
2021/03/25 02:24:20;;;;;;;28.80;14.93;;;7.20;99.90;;;;;;5023052;28;20060;-68
2021/03/25 02:27:38;;;;;;;30.65;15.15;;;7.40;99.90;;;;;;5031076;28;20052;-69
2021/03/25 02:30:55;;;;;;;23.00;14.45;;;7.60;99.90;;;;;;5031683;28;20053;-66
2021/03/25 02:34:12;;;;;;;19.30;12.82;;;7.70;99.90;;;;;;5027256;28;20484;-68
2021/03/25 02:37:26;;;;;;;24.95;13.77;;;7.80;99.90;;;;;;5015357;28;20040;-68
2021/03/25 02:40:44;;;;;;;28.70;14.70;;;8.00;99.90;;;;;;5030897;28;20049;-69
2021/03/25 02:43:58;;;;;;;23.65;12.25;;;8.10;99.90;;;;;;5032598;28;20040;-68
2021/03/25 02:52:36;;;;;;;28.20;14.18;;;8.30;99.90;;;;;;5020209;28;20057;-68
2021/03/25 02:55:44;;;;;;;24.23;13.20;;;8.40;99.90;;;;;;5019532;28;20515;-69
2021/03/25 02:59:00;;;;;;;;;;;8.40;99.90;;;;;;5031581;28;20049;-69
2021/03/25 03:02:33;;;;;;;26.55;13.95;;;8.50;99.90;;;;;;5022599;28;19916;-68
2021/03/25 03:05:41;;;;;;;25.23;14.93;;;8.50;99.90;;;;;;5030484;28;20057;-68
2021/03/25 03:08:48;;;;;;;20.25;13.48;;;8.60;99.90;;;;;;5030787;28;20052;-68
2021/03/25 03:11:58;;;;;;;16.98;11.80;;;8.60;99.90;;;;;;5030753;28;20045;-68
2021/03/25 03:15:12;;;;;;;17.50;10.32;;;8.60;99.90;;;;;;5030748;28;20530;-68
2021/03/25 03:18:26;;;;;;;15.27;9.70;;;8.50;99.90;;;;;;5030580;28;20056;-68
2021/03/25 03:21:48;;;;;;;14.75;10.57;;;8.40;99.90;;;;;;5028061;28;20291;-67
2021/03/25 03:25:17;;;;;;;18.30;11.15;;;8.30;99.90;;;;;;5030781;28;20044;-68
2021/03/25 03:28:30;;;;;;;19.38;10.88;;;8.30;99.90;;;;;;5029641;28;20068;-68
2021/03/25 03:32:11;;;;;;;23.90;10.57;;;8.40;99.90;;;;;;5030260;28;20388;-68
2021/03/25 03:35:48;;;;;;;15.50;10.60;;;8.30;99.90;;;;;;5030367;28;20036;-68
2021/03/25 03:39:04;;;;;;;18.92;9.80;;;8.30;99.90;;;;;;5030357;28;20388;-68
2021/03/25 03:42:16;;;;;;;15.90;10.23;;;8.30;99.90;;;;;;5030776;28;20156;-68
2021/03/25 03:45:23;;;;;;;15.13;10.80;;;8.30;99.90;;;;;;5029997;28;20056;-68
2021/03/25 03:48:46;;;;;;;15.18;10.23;;;8.30;99.90;;;;;;5030015;28;20048;-68
2021/03/25 03:52:06;;;;;;;14.77;10.38;;;8.30;99.90;;;;;;5016620;28;20052;-68
2021/03/25 03:55:16;;;;;;;18.02;10.98;;;8.30;99.90;;;;;;5017445;28;20049;-68
2021/03/25 03:58:30;;;;;;;19.30;11.15;;;8.10;99.90;;;;;;5029909;28;20642;-68
2021/03/25 04:01:47;;;;;;;19.58;12.05;;;8.00;99.90;;;;;;5029608;28;20652;-68
2021/03/25 04:05:04;;;;;;;19.40;12.10;;;8.00;99.90;;;;;;5029357;28;20060;-68
2021/03/25 04:08:48;;;;;;;17.20;11.55;;;7.90;99.90;;;;;;5029660;28;20400;-68
2021/03/25 04:12:15;;;;;;;96.38;53.35;;;7.80;99.90;;;;;;5029295;28;20479;-68
2021/03/25 04:15:27;;;;;;;31.35;17.00;;;7.60;99.90;;;;;;5028798;28;20024;-68
2021/03/25 04:19:05;;;;;;;15.48;10.70;;;7.60;99.90;;;;;;5029457;28;20056;-69
2021/03/25 04:22:30;;;;;;;16.67;9.98;;;7.40;99.90;;;;;;5029633;28;20049;-69
2021/03/25 04:25:45;;;;;;;19.10;10.30;;;7.20;99.90;;;;;;5029838;28;20819;-68
2021/03/25 04:43:04;;;;;;;17.08;10.98;;;6.70;99.90;;;;;;5018777;28;20057;-68
2021/03/25 04:46:25;;;;;;;23.20;11.98;;;6.60;99.90;;;;;;5028702;28;20040;-69
2021/03/25 04:49:39;;;;;;;18.58;10.80;;;6.50;99.90;;;;;;5020258;28;20057;-69
2021/03/25 04:52:44;;;;;;;17.20;9.95;;;6.50;99.90;;;;;;5029337;28;20053;-69
2021/03/25 04:55:48;;;;;;;18.33;10.40;;;6.40;99.90;;;;;;5029517;28;20037;-69
2021/03/25 04:58:59;;;;;;;14.60;9.00;;;6.40;99.90;;;;;;5021273;28;20049;-69
2021/03/25 05:02:06;;;;;;;16.00;8.73;;;6.30;99.90;;;;;;5029763;28;20549;-68
2021/03/25 05:05:24;;;;;;;21.70;9.63;;;6.20;99.90;;;;;;5030119;28;20372;-68
2021/03/25 05:08:32;;;;;;;15.40;9.60;;;6.20;99.90;;;;;;5029694;28;20662;-68
2021/03/25 05:11:39;;;;;;;20.05;10.77;;;6.00;99.90;;;;;;5030118;28;20036;-68
2021/03/25 05:14:46;;;;;;;18.23;9.80;;;5.80;99.90;;;;;;5026657;28;20052;-68
2021/03/25 05:18:30;;;;;;;18.17;10.77;;;5.60;99.90;;;;;;5034106;28;20048;-69
2021/03/25 05:22:02;;;;;;;18.95;10.88;;;5.60;99.90;;;;;;5028682;28;20044;-68
2021/03/25 05:25:21;;;;;;;28.25;12.25;;;5.40;99.90;;;;;;5033707;28;20067;-69
2021/03/25 05:28:43;;;;;;;23.48;11.32;;;5.40;99.90;;;;;;5032901;28;20037;-68
2021/03/25 05:31:49;;;;;;;19.95;12.00;;;5.50;99.90;;;;;;5033295;28;20044;-68
2021/03/25 05:34:57;;;;;;;25.63;12.18;;;5.50;99.90;;;;;;5033333;28;20644;-68
2021/03/25 05:38:03;;;;;;;19.05;11.85;;;5.50;99.90;;;;;;5032716;28;20044;-69
2021/03/25 05:41:11;;;;;;;19.65;13.07;;;5.40;99.90;;;;;;5033136;28;20057;-68
2021/03/25 05:44:35;;;;;;;25.90;13.43;;;5.30;99.90;;;;;;5033407;28;20053;-67
2021/03/25 05:47:52;;;;;;;21.92;14.02;;;5.40;99.90;;;;;;5032597;28;20044;-68
2021/03/25 05:51:09;;;;;;;26.00;15.38;;;5.40;99.90;;;;;;5032615;28;20476;-69
2021/03/25 05:54:57;;;;;;;26.50;16.35;;;5.50;99.90;;;;;;5033017;28;20048;-68
2021/03/25 05:58:39;;;;;;;27.92;15.70;;;5.50;99.90;;;;;;5033504;28;20049;-68
2021/03/25 06:02:02;;;;;;;28.90;16.27;;;5.70;99.90;;;;;;5023864;28;20056;-68
2021/03/25 06:05:12;;;;;;;26.90;15.80;;;6.00;99.90;;;;;;5024539;28;20056;-68
2021/03/25 06:08:38;;;;;;;20.08;13.90;;;6.40;99.90;;;;;;5031261;28;20064;-68
2021/03/25 06:12:10;;;;;;;23.35;14.23;;;6.70;99.90;;;;;;5031682;28;20056;-67
2021/03/25 06:15:20;;;;;;;25.90;14.60;;;6.90;99.90;;;;;;5031771;28;20040;-68
2021/03/25 06:19:02;;;;;;;29.17;16.10;;;6.90;99.90;;;;;;5025300;28;20039;-68
2021/03/25 06:22:21;;;;;;;21.25;14.55;;;6.90;99.90;;;;;;5019987;28;20044;-68
2021/03/25 06:25:59;;;;;;;20.95;13.73;;;6.80;99.90;;;;;;5024274;28;20040;-68
2021/03/25 06:29:14;;;;;;;25.30;13.75;;;6.80;99.90;;;;;;5030589;28;20049;-69
2021/03/25 06:32:34;;;;;;;22.85;14.05;;;6.90;99.90;;;;;;5029000;28;20376;-68
2021/03/25 06:35:51;;;;;;;23.88;13.50;;;7.10;99.90;;;;;;5029675;28;20579;-68
2021/03/25 06:38:59;;;;;;;22.52;13.43;;;7.30;99.90;;;;;;5029244;28;20057;-68
2021/03/25 06:42:16;;;;;;;19.80;13.32;;;7.60;99.90;;;;;;5028314;28;20515;-68
2021/03/25 06:45:23;;;;;;;23.15;12.65;;;7.90;99.90;;;;;;5030105;28;20045;-69
2021/03/25 06:48:42;;;;;;;23.05;14.15;;;8.10;99.90;;;;;;5029178;28;20040;-69
2021/03/25 06:51:47;;;;;;;21.55;14.38;;;8.10;99.90;;;;;;5027931;28;20052;-68
2021/03/25 06:54:58;;;;;;;24.42;13.35;;;8.20;99.90;;;;;;5030193;28;20044;-69
2021/03/25 06:58:06;;;;;;;20.92;13.50;;;7.70;99.90;;;;;;5029823;28;20396;-68
2021/03/25 07:01:39;;;;;;;22.75;12.93;;;7.80;99.90;;;;;;5018478;28;20056;-68
2021/03/25 07:04:48;;;;;;;17.60;12.10;;;8.00;99.90;;;;;;5028006;28;20059;-68
2021/03/25 07:08:04;;;;;;;19.92;11.77;;;8.20;99.90;;;;;;5027224;28;20053;-68
2021/03/25 07:11:18;;;;;;;16.20;11.57;;;8.70;99.90;;;;;;5027187;28;20036;-68
2021/03/25 07:14:40;;;;;;;17.83;10.73;;;9.10;99.90;;;;;;5030237;28;20397;-68
2021/03/25 07:17:45;;;;;;;16.75;9.85;;;10.00;99.90;;;;;;5028945;28;20041;-68
2021/03/25 07:21:09;;;;;;;18.55;9.90;;;11.00;99.90;;;;;;5027236;28;20044;-68
2021/03/25 07:24:23;;;;;;;15.25;8.70;;;11.80;99.90;;;;;;5028731;28;20082;-68
2021/03/25 07:27:35;;;;;;;13.70;9.02;;;12.30;99.90;;;;;;5019954;28;20056;-68
2021/03/25 07:31:03;;;;;;;15.48;9.30;;;12.50;99.90;;;;;;5029057;28;20052;-68
2021/03/25 07:34:08;;;;;;;12.85;9.18;;;12.50;99.90;;;;;;5028747;28;20040;-68
2021/03/25 07:37:32;;;;;;;15.80;9.43;;;12.60;99.90;;;;;;5027465;28;20036;-68
2021/03/25 07:40:38;;;;;;;15.27;9.27;;;12.80;99.90;;;;;;5027944;28;20040;-68
2021/03/25 07:43:56;;;;;;;12.60;9.55;;;13.00;99.90;;;;;;5020317;28;20152;-68
2021/03/25 07:47:06;;;;;;;15.85;9.88;;;13.00;99.90;;;;;;5025288;28;20048;-68
2021/03/25 07:50:19;;;;;;;15.30;9.25;;;13.30;99.90;;;;;;5025961;28;20071;-69
2021/03/25 07:53:30;;;;;;;16.77;9.38;;;13.80;99.90;;;;;;5023061;28;20060;-68
2021/03/25 07:56:34;;;;;;;11.35;7.63;;;14.50;99.90;;;;;;5021969;28;20044;-68
2021/03/25 07:59:54;;;;;;;12.10;7.90;;;15.30;99.90;;;;;;5020151;28;20060;-68
2021/03/25 08:03:20;;;;;;;12.88;7.68;;;16.50;99.90;;;;;;5021852;28;20044;-69
2021/03/25 08:06:37;;;;;;;10.07;7.20;;;18.70;99.90;;;;;;5021051;28;20041;-68
2021/03/25 08:09:53;;;;;;;10.27;7.25;;;20.20;99.20;;;;;;5025765;28;20060;-69
2021/03/25 08:13:29;;;;;;;17.77;6.55;;;21.50;96.60;;;;;;5025931;28;20041;-68
2021/03/25 08:16:43;;;;;;;10.90;6.55;;;21.70;94.00;;;;;;5027076;28;21091;-68
2021/03/25 08:20:02;;;;;;;11.57;6.60;;;20.20;94.80;;;;;;5025920;28;20396;-68
2021/03/25 08:23:35;;;;;;;8.63;6.07;;;19.30;95.90;;;;;;5026543;28;20037;-69
2021/03/25 08:27:11;;;;;;;8.50;5.87;;;20.50;95.10;;;;;;5023041;28;20056;-68
2021/03/25 08:30:33;;;;;;;7.22;5.13;;;23.00;92.80;;;;;;5014496;28;20041;-68
2021/03/25 08:34:04;;;;;;;11.02;6.28;;;26.00;86.00;;;;;;5025232;28;20042;-68
2021/03/25 08:37:28;;;;;;;8.80;5.18;;;27.60;77.50;;;;;;5022073;28;20044;-68
2021/03/25 08:40:40;;;;;;;9.13;4.95;;;28.30;70.80;;;;;;5024515;28;20052;-68
2021/03/25 08:44:00;;;;;;;7.03;3.88;;;28.90;67.20;;;;;;5020902;28;20036;-69
2021/03/25 08:47:18;;;;;;;9.07;4.20;;;30.30;64.00;;;;;;5025312;28;20041;-68
2021/03/25 08:50:50;;;;;;;6.68;3.88;;;31.00;60.60;;;;;;5029549;28;20053;-68
2021/03/25 08:54:04;;;;;;;7.13;4.00;;;31.10;58.50;;;;;;5029926;28;20052;-69
2021/03/25 08:57:17;;;;;;;7.13;4.57;;;31.50;57.50;;;;;;5027633;28;20045;-68
2021/03/25 09:00:26;;;;;;;8.23;3.90;;;31.60;55.10;;;;;;5030465;28;20052;-68
2021/03/25 09:03:47;;;;;;;6.57;3.90;;;32.00;55.40;;;;;;5031295;28;20041;-68
2021/03/25 09:06:52;;;;;;;5.97;4.13;;;32.00;53.80;;;;;;5029421;28;20534;-67
2021/03/25 09:10:03;;;;;;;7.95;3.67;;;32.00;54.40;;;;;;5030917;28;20056;-68
2021/03/25 09:13:21;;;;;;;7.65;4.15;;;32.10;53.10;;;;;;5032289;28;20041;-69
2021/03/25 09:16:36;;;;;;;6.68;4.00;;;31.60;52.20;;;;;;5031060;28;20041;-68
2021/03/25 09:19:48;;;;;;;8.88;3.88;;;31.40;52.60;;;;;;5031127;28;20499;-69
2021/03/25 09:22:56;;;;;;;5.43;4.10;;;32.10;51.40;;;;;;5027240;28;20060;-68
2021/03/25 09:26:21;;;;;;;5.97;3.40;;;33.00;50.30;;;;;;5002596;28;20052;-67
2021/03/25 09:29:32;;;;;;;5.45;3.10;;;33.40;50.10;;;;;;5013787;28;20052;-68
2021/03/25 09:32:39;;;;;;;6.05;3.72;;;33.70;49.60;;;;;;5016271;28;20045;-68
2021/03/25 09:35:45;;;;;;;7.13;3.72;;;33.90;47.90;;;;;;5020645;28;20072;-68
2021/03/25 09:38:58;;;;;;;9.05;4.03;;;34.80;47.70;;;;;;5023755;28;20044;-68
2021/03/25 09:42:25;;;;;;;6.30;3.67;;;35.10;47.50;;;;;;5022819;28;20037;-67
2021/03/25 09:45:36;;;;;;;6.18;3.65;;;35.10;46.50;;;;;;5021400;28;21297;-67
2021/03/25 09:48:40;;;;;;;9.40;3.83;;;34.90;46.60;;;;;;5010168;28;20696;-67
2021/03/25 09:51:46;;;;;;;7.93;3.90;;;34.50;47.20;;;;;;5020126;28;20380;-67
2021/03/25 09:54:54;;;;;;;7.97;3.30;;;35.60;45.90;;;;;;5027085;28;20044;-68
2021/03/25 09:57:58;;;;;;;6.80;3.70;;;36.40;44.40;;;;;;5025082;28;20040;-68
2021/03/25 10:01:03;;;;;;;9.10;3.42;;;36.70;43.60;;;;;;5021045;28;20052;-68
2021/03/25 10:04:30;;;;;;;6.38;4.25;;;37.00;44.50;;;;;;5030515;28;20052;-67
2021/03/25 10:07:36;;;;;;;9.13;3.50;;;37.50;43.50;;;;;;5012098;28;20649;-67
2021/03/25 10:10:44;;;;;;;5.38;3.35;;;37.50;43.80;;;;;;5024456;28;20385;-67
2021/03/25 10:13:48;;;;;;;8.98;3.45;;;37.20;43.40;;;;;;5024946;28;20049;-68
2021/03/25 10:16:53;;;;;;;5.15;3.25;;;37.80;42.70;;;;;;5019440;28;20041;-67
2021/03/25 10:19:57;;;;;;;9.05;3.95;;;38.20;42.30;;;;;;5023326;28;20133;-67
2021/03/25 10:23:01;;;;;;;5.80;3.50;;;37.70;42.10;;;;;;5022951;28;20128;-68
2021/03/25 10:26:08;;;;;;;6.53;3.67;;;36.70;43.10;;;;;;5020064;28;20052;-67
2021/03/25 10:29:32;;;;;;;6.50;3.75;;;37.20;43.00;;;;;;5020301;28;20452;-68
2021/03/25 10:32:43;;;;;;;7.65;3.10;;;37.40;42.10;;;;;;5022922;28;20044;-67
2021/03/25 10:35:59;;;;;;;8.13;3.30;;;37.90;41.20;;;;;;5020975;28;20045;-68
2021/03/25 10:39:14;;;;;;;9.50;6.18;;;37.40;41.70;;;;;;5019966;28;20036;-67
2021/03/25 10:42:36;;;;;;;6.68;3.03;;;37.90;41.40;;;;;;5019481;28;20040;-67
2021/03/25 10:45:51;;;;;;;4.93;3.17;;;37.00;40.50;;;;;;5015907;28;20507;-67
2021/03/25 10:49:04;;;;;;;7.25;3.33;;;37.50;41.00;;;;;;5009197;28;20037;-67
2021/03/25 10:52:37;;;;;;;7.53;3.70;;;37.00;40.40;;;;;;5017879;28;20056;-68
2021/03/25 10:55:44;;;;;;;6.63;3.20;;;35.40;40.40;;;;;;5016998;28;20976;-68
2021/03/25 10:59:03;;;;;;;3.60;2.75;;;36.00;41.30;;;;;;5014815;28;20040;-68
2021/03/25 11:02:19;;;;;;;6.35;3.22;;;35.80;40.90;;;;;;5019741;28;20120;-67
2021/03/25 11:05:27;;;;;;;6.85;3.00;;;35.70;40.80;;;;;;5017062;28;20044;-68
2021/03/25 11:08:39;;;;;;;9.93;3.03;;;35.00;41.50;;;;;;5010980;28;20046;-68
2021/03/25 11:11:44;;;;;;;6.72;2.95;;;35.20;41.70;;;;;;5016606;28;20048;-68
2021/03/25 11:14:54;;;;;;;5.28;2.60;;;36.40;41.00;;;;;;5022843;28;20459;-67
2021/03/25 11:18:18;;;;;;;5.82;2.97;;;36.50;40.50;;;;;;5022682;28;20044;-68
2021/03/25 11:21:27;;;;;;;6.25;2.88;;;37.30;40.20;;;;;;5018865;28;20056;-68
2021/03/25 11:24:33;;;;;;;7.43;4.17;;;37.60;40.10;;;;;;5025614;28;20049;-68
2021/03/25 11:27:38;;;;;;;9.52;3.38;;;37.90;39.40;;;;;;5027348;28;20866;-67
2021/03/25 11:30:47;;;;;;;7.70;2.88;;;38.30;39.50;;;;;;5028406;28;20052;-68
2021/03/25 11:33:53;;;;;;;5.05;2.63;;;36.80;37.80;;;;;;5025586;28;20045;-68
2021/03/25 11:36:59;;;;;;;12.55;4.57;;;34.90;40.60;;;;;;5021627;28;20056;-67
2021/03/25 11:40:12;;;;;;;6.13;3.53;;;36.10;40.70;;;;;;5015890;28;20504;-67
2021/03/25 11:43:21;;;;;;;3.83;2.53;;;37.40;39.90;;;;;;5018427;28;20053;-69
2021/03/25 11:46:30;;;;;;;6.35;3.50;;;37.60;39.30;;;;;;5028452;28;20036;-68
2021/03/25 11:49:42;;;;;;;4.72;2.50;;;37.80;38.50;;;;;;5023773;28;20041;-67
2021/03/25 11:52:50;;;;;;;3.53;2.20;;;37.70;39.20;;;;;;5022510;28;20052;-68
2021/03/25 11:55:55;;;;;;;6.60;2.70;;;37.00;39.00;;;;;;5023253;28;20044;-67
2021/03/25 11:59:17;;;;;;;4.07;2.20;;;35.70;39.50;;;;;;5022066;28;20052;-68
2021/03/25 12:02:30;;;;;;;5.72;2.65;;;36.30;40.50;;;;;;5027814;28;20049;-68
2021/03/25 12:05:41;;;;;;;4.57;2.33;;;36.60;40.60;;;;;;5022755;28;20044;-67
2021/03/25 12:08:45;;;;;;;;;;;35.60;40.00;;;;;;5027029;28;20056;-67
2021/03/25 12:11:51;;;;;;;5.22;2.60;;;30.50;42.20;;;;;;5025653;28;19916;-67
2021/03/25 12:14:55;;;;;;;7.15;3.08;;;30.30;45.20;;;;;;5025548;28;20056;-67
2021/03/25 12:18:26;;;;;;;6.57;2.80;;;33.00;43.00;;;;;;5016918;28;20053;-68
2021/03/25 12:21:30;;;;;;;7.25;2.97;;;33.50;42.00;;;;;;5017163;28;20053;-67
2021/03/25 12:24:35;;;;;;;8.82;2.92;;;35.10;41.50;;;;;;5024820;28;20036;-67
2021/03/25 12:27:39;;;;;;;5.50;2.80;;;35.00;40.80;;;;;;5020765;28;20045;-67
2021/03/25 12:30:44;;;;;;;5.43;2.40;;;35.60;40.50;;;;;;5004599;28;20165;-68
2021/03/25 12:33:50;;;;;;;4.18;2.30;;;36.40;40.00;;;;;;5021872;28;20068;-68
2021/03/25 12:36:55;;;;;;;4.43;2.75;;;37.00;39.50;;;;;;5019000;28;20168;-68
2021/03/25 12:40:00;;;;;;;5.60;2.42;;;36.80;38.80;;;;;;5010792;28;20056;-67
2021/03/25 12:43:10;;;;;;;6.20;2.47;;;36.80;38.50;;;;;;5017621;28;21654;-66
2021/03/25 12:46:15;;;;;;;10.40;3.17;;;33.90;39.50;;;;;;5016951;28;20040;-67
2021/03/25 12:49:20;;;;;;;4.90;2.75;;;29.20;45.30;;;;;;5019274;28;20607;-68
2021/03/25 12:52:26;;;;;;;6.28;2.60;;;29.30;44.30;;;;;;5011793;28;20049;-67
2021/03/25 12:55:31;;;;;;;6.47;2.65;;;30.70;42.90;;;;;;5019758;28;20040;-67
2021/03/25 12:58:38;;;;;;;6.00;2.90;;;30.20;43.00;;;;;;5019843;28;20048;-68
2021/03/25 13:01:43;;;;;;;5.50;3.10;;;31.90;42.90;;;;;;5006971;28;20065;-67
2021/03/25 13:04:48;;;;;;;7.07;3.03;;;32.20;41.00;;;;;;5019523;28;20052;-68
2021/03/25 13:07:53;;;;;;;5.00;2.85;;;33.10;42.30;;;;;;5019915;28;20049;-68
2021/03/25 13:10:57;;;;;;;7.95;2.90;;;34.10;40.90;;;;;;4994567;28;20048;-67
2021/03/25 13:14:02;;;;;;;7.70;2.97;;;34.90;40.70;;;;;;5019659;28;20048;-68
2021/03/25 13:17:06;;;;;;;9.88;4.35;;;35.70;39.40;;;;;;5019272;28;20052;-67
2021/03/25 13:20:12;;;;;;;6.95;3.30;;;35.90;40.80;;;;;;5008006;28;20044;-67
2021/03/25 13:23:17;;;;;;;12.88;4.65;;;34.40;41.00;;;;;;5018795;28;20052;-68
2021/03/25 13:26:21;;;;;;;6.38;3.03;;;34.40;40.80;;;;;;5016256;28;20049;-68
2021/03/25 13:29:26;;;;;;;7.80;3.00;;;34.40;41.00;;;;;;5013877;28;20047;-67
2021/03/25 13:32:30;;;;;;;13.75;5.30;;;32.40;40.80;;;;;;5013418;28;20048;-67
2021/03/25 13:35:37;;;;;;;9.20;4.22;;;33.60;41.90;;;;;;5021919;28;20041;-67
2021/03/25 13:38:41;;;;;;;10.88;3.80;;;34.00;41.30;;;;;;5023075;28;20677;-68
2021/03/25 13:41:45;;;;;;;6.75;2.60;;;33.70;41.50;;;;;;5009498;28;20056;-68
2021/03/25 13:44:49;;;;;;;39.88;16.58;;;34.30;41.60;;;;;;5021937;28;20052;-68
2021/03/25 13:47:53;;;;;;;13.02;6.18;;;34.80;40.40;;;;;;5021432;28;20052;-68
2021/03/25 13:51:02;;;;;;;7.65;3.00;;;35.20;39.60;;;;;;5009751;28;20060;-68
2021/03/25 13:54:06;;;;;;;6.88;3.00;;;35.20;40.10;;;;;;5023480;28;20040;-69
2021/03/25 13:57:11;;;;;;;9.40;3.17;;;34.70;39.90;;;;;;5020383;28;20403;-67
2021/03/25 14:00:16;;;;;;;8.38;3.65;;;34.20;40.60;;;;;;5009931;28;20052;-68
2021/03/25 14:03:21;;;;;;;6.25;3.13;;;34.20;40.60;;;;;;5023861;28;20056;-68
2021/03/25 14:06:25;;;;;;;5.88;2.90;;;34.10;40.70;;;;;;5018360;28;20564;-67
2021/03/25 14:09:31;;;;;;;7.45;3.05;;;33.60;41.40;;;;;;5016224;28;20044;-67
2021/03/25 14:12:36;;;;;;;8.95;2.97;;;33.40;41.70;;;;;;5017989;28;20036;-67
2021/03/25 14:15:42;;;;;;;8.23;3.17;;;32.80;41.80;;;;;;5021239;28;20044;-67
2021/03/25 14:18:49;;;;;;;6.05;2.67;;;32.80;42.40;;;;;;5023567;28;20045;-67
2021/03/25 14:21:54;;;;;;;6.45;2.67;;;32.90;42.20;;;;;;5010720;28;20060;-68
2021/03/25 14:24:59;;;;;;;8.95;2.58;;;32.60;42.40;;;;;;5023427;28;20044;-68
2021/03/25 14:28:05;;;;;;;9.13;2.78;;;31.70;43.60;;;;;;5021594;28;20037;-68
2021/03/25 14:31:09;;;;;;;8.25;2.63;;;30.70;44.10;;;;;;5007450;28;20056;-67
2021/03/25 14:34:13;;;;;;;9.40;2.92;;;30.30;44.60;;;;;;5021978;28;20044;-67
2021/03/25 14:37:17;;;;;;;8.35;2.97;;;29.10;44.40;;;;;;5019192;28;20048;-67
2021/03/25 14:40:22;;;;;;;5.97;3.10;;;28.10;46.70;;;;;;5007890;28;20048;-68
2021/03/25 14:43:29;;;;;;;10.35;3.08;;;27.80;46.80;;;;;;5021785;28;20036;-67
2021/03/25 14:46:33;;;;;;;14.00;4.32;;;27.30;47.80;;;;;;5019081;28;20120;-68
2021/03/25 14:49:38;;;;;;;8.32;3.92;;;26.90;48.00;;;;;;5012385;28;20739;-67
2021/03/25 14:52:42;;;;;;;11.00;4.43;;;26.20;49.60;;;;;;5017176;28;20052;-67
2021/03/25 14:55:48;;;;;;;9.60;3.83;;;25.20;50.70;;;;;;5022348;28;20051;-70
2021/03/25 14:58:51;;;;;;;6.65;3.50;;;24.90;50.70;;;;;;5019741;28;20056;-69
2021/03/25 15:01:55;;;;;;;10.93;4.07;;;24.60;51.00;;;;;;5008377;28;20057;-69
2021/03/25 15:04:59;;;;;;;10.38;3.75;;;24.00;52.00;;;;;;5022920;28;20040;-69
2021/03/25 15:08:04;;;;;;;11.95;3.67;;;23.60;51.60;;;;;;5020273;28;20052;-69
2021/03/25 15:11:08;;;;;;;11.35;4.28;;;23.50;53.00;;;;;;5008405;28;20040;-69
2021/03/25 15:14:13;;;;;;;9.18;3.67;;;23.30;53.10;;;;;;5022515;28;20059;-68
2021/03/25 15:17:17;;;;;;;8.73;3.70;;;23.20;53.10;;;;;;5021228;28;20056;-69
2021/03/25 15:20:26;;;;;;;10.30;3.17;;;23.20;53.90;;;;;;5009498;28;20052;-69
2021/03/25 15:23:33;;;;;;;14.32;3.30;;;23.10;54.50;;;;;;5018044;28;20048;-68
2021/03/25 15:26:38;;;;;;;12.02;3.83;;;22.90;53.90;;;;;;5020461;28;20044;-68
2021/03/25 15:29:42;;;;;;;7.07;3.28;;;22.70;53.40;;;;;;5013530;28;20056;-69
2021/03/25 15:32:46;;;;;;;9.45;3.65;;;22.50;54.20;;;;;;5018446;28;20661;-69
2021/03/25 15:35:56;;;;;;;10.10;3.55;;;22.40;54.30;;;;;;5021073;28;20515;-68
2021/03/25 15:39:01;;;;;;;9.45;3.60;;;22.20;55.10;;;;;;5018229;28;20041;-68
2021/03/25 15:42:06;;;;;;;5.95;2.90;;;21.80;55.10;;;;;;5014536;28;20064;-69
2021/03/25 15:45:14;;;;;;;7.95;3.28;;;21.60;55.50;;;;;;5021693;28;20057;-68
2021/03/25 15:48:20;;;;;;;8.93;3.55;;;21.40;57.20;;;;;;5021754;28;20041;-68
2021/03/25 15:51:26;;;;;;;15.98;3.95;;;20.80;54.90;;;;;;5008241;28;20080;-69
2021/03/25 15:54:30;;;;;;;7.32;3.50;;;20.40;57.30;;;;;;5021440;28;20121;-68
2021/03/25 15:57:35;;;;;;;10.63;3.90;;;20.40;58.70;;;;;;5015273;28;20064;-69
2021/03/25 16:00:39;;;;;;;9.98;4.18;;;20.30;59.60;;;;;;5007573;28;20435;-68
2021/03/25 16:03:44;;;;;;;13.70;3.90;;;20.20;59.80;;;;;;5019082;28;20037;-68
2021/03/25 16:06:49;;;;;;;9.82;3.75;;;19.90;59.70;;;;;;5019395;28;20056;-69
2021/03/25 16:09:54;;;;;;;7.15;2.97;;;19.90;60.40;;;;;;5012968;28;20045;-69
2021/03/25 16:13:00;;;;;;;6.78;3.13;;;19.90;59.90;;;;;;5015721;28;20036;-68
2021/03/25 16:16:06;;;;;;;12.25;4.55;;;19.90;60.40;;;;;;5019503;28;20048;-68
2021/03/25 16:19:10;;;;;;;8.32;3.28;;;19.70;61.20;;;;;;5018375;28;20400;-69
2021/03/25 16:22:16;;;;;;;6.85;3.33;;;19.50;61.20;;;;;;5012872;28;20048;-68
2021/03/25 16:25:21;;;;;;;12.93;4.03;;;19.30;62.20;;;;;;5019393;28;20479;-68
2021/03/25 16:28:29;;;;;;;11.27;3.50;;;19.00;63.30;;;;;;5020316;28;20048;-68
2021/03/25 16:31:34;;;;;;;18.20;3.95;;;18.80;63.90;;;;;;5006793;28;20420;-69
2021/03/25 16:34:39;;;;;;;11.70;3.45;;;18.60;65.00;;;;;;5020140;28;20479;-69
2021/03/25 16:37:43;;;;;;;9.63;3.50;;;18.40;65.10;;;;;;5018697;28;20072;-68
2021/03/25 16:40:49;;;;;;;6.75;3.53;;;18.20;66.30;;;;;;5003575;28;20068;-68
2021/03/25 16:43:55;;;;;;;11.18;3.38;;;17.90;67.30;;;;;;5020613;28;20048;-68
2021/03/25 16:47:00;;;;;;;8.85;4.25;;;17.70;68.90;;;;;;5019974;28;20041;-68
2021/03/25 16:50:06;;;;;;;10.93;4.25;;;17.60;69.20;;;;;;5011156;28;20045;-68
2021/03/25 16:53:12;;;;;;;12.05;4.13;;;17.40;70.10;;;;;;5018322;28;20052;-69